createdAt,value
2022-10-08T00:00:51.725Z,101255.94
2022-10-08T00:03:56.867Z,101259.72
2022-10-08T00:06:59.548Z,101269.53
2022-10-08T00:10:02.562Z,101260.13
2022-10-08T00:13:05.986Z,101262.41
2022-10-08T00:16:12.423Z,101246.19
2022-10-08T00:19:16.273Z,101250.63
2022-10-08T00:22:18.987Z,101249.66
2022-10-08T00:25:21.555Z,101249.28
2022-10-08T00:28:24.140Z,101248.31
2022-10-08T00:31:31.849Z,101240.16
2022-10-08T00:34:34.566Z,101234.09
2022-10-08T00:37:37.147Z,101231.97
2022-10-08T00:40:43.866Z,101243.53
2022-10-08T00:43:49.029Z,101236.56
2022-10-08T00:46:54.299Z,101238.88
2022-10-08T00:50:00.081Z,101234.72
2022-10-08T00:53:05.975Z,101230.09
2022-10-08T00:56:08.799Z,101226.78
2022-10-08T00:59:13.943Z,101220.50
2022-10-08T01:02:19.352Z,101217.44
2022-10-08T01:05:30.478Z,101225.75
2022-10-08T01:08:38.687Z,101215.34
2022-10-08T01:11:49.133Z,101219.53
2022-10-08T01:14:56.906Z,101208.56
2022-10-08T01:18:11.329Z,101210.13
2022-10-08T01:21:18.896Z,101203.13
2022-10-08T01:24:49.439Z,101208.56
2022-10-08T01:28:00.925Z,101205.38
2022-10-08T01:31:07.910Z,101203.47
2022-10-08T01:34:16.329Z,101206.03
2022-10-08T01:37:25.550Z,101208.78
2022-10-08T01:40:32.142Z,101204.34
2022-10-08T01:43:39.320Z,101207.19
2022-10-08T01:46:45.773Z,101204.19
2022-10-08T01:49:54.012Z,101196.47
2022-10-08T01:53:00.579Z,101199.44
2022-10-08T01:56:05.005Z,101188.00
2022-10-08T01:59:14.659Z,101186.06
2022-10-08T02:02:21.606Z,101166.34
2022-10-08T02:05:29.217Z,101175.81
2022-10-08T02:08:34.863Z,101183.66
2022-10-08T02:11:37.551Z,101181.06
2022-10-08T02:14:44.384Z,101176.31
2022-10-08T02:17:57.748Z,101172.00
2022-10-08T02:21:02.533Z,101169.88
2022-10-08T02:24:13.243Z,101168.63
2022-10-08T02:27:18.231Z,101169.44
2022-10-08T02:30:23.695Z,101173.47
2022-10-08T02:33:31.647Z,101165.28
2022-10-08T02:36:39.745Z,101177.34
2022-10-08T02:39:47.617Z,101174.09
2022-10-08T02:42:54.274Z,101164.06
2022-10-08T02:46:02.464Z,101166.97
2022-10-08T02:49:11.771Z,101167.53
2022-10-08T02:52:16.241Z,101169.56
2022-10-08T02:55:34.127Z,101187.13
2022-10-08T02:58:37.082Z,101171.16
2022-10-08T03:01:46.034Z,101175.38
2022-10-08T03:04:53.661Z,101180.38
2022-10-08T03:07:59.231Z,101180.38
2022-10-08T03:11:01.990Z,101184.03
2022-10-08T03:14:09.343Z,101176.03
2022-10-08T03:17:17.367Z,101176.69
2022-10-08T03:20:20.718Z,101180.84
2022-10-08T03:23:24.917Z,101178.47
2022-10-08T03:26:27.583Z,101186.94
2022-10-08T03:29:30.178Z,101190.63
2022-10-08T03:32:34.255Z,101185.72
2022-10-08T03:35:36.991Z,101191.94
2022-10-08T03:38:39.611Z,101196.81
2022-10-08T03:41:42.293Z,101190.75
2022-10-08T03:44:44.885Z,101181.22
2022-10-08T03:47:52.909Z,101178.97
2022-10-08T03:50:57.481Z,101184.66
2022-10-08T03:54:00.330Z,101175.59
2022-10-08T03:57:03.524Z,101172.66
2022-10-08T04:00:07.124Z,101174.41
2022-10-08T04:03:11.364Z,101172.50
2022-10-08T04:06:14.532Z,101179.31
2022-10-08T04:09:17.113Z,101171.34
2022-10-08T04:12:19.821Z,101174.66
2022-10-08T04:15:22.372Z,101170.59
2022-10-08T04:18:26.416Z,101162.50
2022-10-08T04:21:31.155Z,101173.56
2022-10-08T04:24:33.697Z,101174.91
2022-10-08T04:27:36.375Z,101176.56
2022-10-08T04:30:38.946Z,101168.00
2022-10-08T04:33:43.080Z,101177.25
2022-10-08T04:36:45.653Z,101175.59
2022-10-08T04:39:48.367Z,101174.75
2022-10-08T04:42:52.149Z,101180.63
2022-10-08T04:45:54.899Z,101174.41
2022-10-08T04:49:00.191Z,101177.41
2022-10-08T04:52:02.798Z,101173.00
2022-10-08T04:55:06.110Z,101177.06
2022-10-08T04:58:08.706Z,101180.03
2022-10-08T05:01:14.430Z,101176.09
2022-10-08T05:04:18.463Z,101177.16
2022-10-08T05:07:21.168Z,101175.16
2022-10-08T05:10:24.715Z,101181.72
2022-10-08T05:13:27.522Z,101173.13
2022-10-08T05:16:30.317Z,101173.59
2022-10-08T05:19:35.399Z,101175.97
2022-10-08T05:22:38.116Z,101176.22
2022-10-08T05:25:40.689Z,101171.81
2022-10-08T05:28:44.019Z,101176.22
2022-10-08T05:31:46.854Z,101182.41
2022-10-08T05:34:50.763Z,101171.22
2022-10-08T05:37:53.488Z,101181.94
2022-10-08T05:40:56.052Z,101185.50
2022-10-08T05:44:01.990Z,101183.59
2022-10-08T05:47:04.600Z,101184.69
2022-10-08T05:50:09.845Z,101192.31
2022-10-08T05:53:12.407Z,101190.25
2022-10-08T05:56:16.798Z,101189.19
2022-10-08T05:59:21.796Z,101185.13
2022-10-08T06:02:24.570Z,101193.59
2022-10-08T06:05:28.674Z,101193.59
2022-10-08T06:08:31.434Z,101199.31
2022-10-08T06:11:36.887Z,101201.81
2022-10-08T06:14:39.479Z,101190.59
2022-10-08T06:17:42.226Z,101191.47
2022-10-08T06:20:46.135Z,101196.09
2022-10-08T06:23:50.736Z,101197.53
2022-10-08T06:26:53.336Z,101199.78
2022-10-08T06:29:56.103Z,101195.25
2022-10-08T06:32:58.840Z,101201.22
2022-10-08T06:36:05.493Z,101210.88
2022-10-08T06:39:11.503Z,101203.47
2022-10-08T06:42:14.200Z,101203.66
2022-10-08T06:45:17.112Z,101202.56
2022-10-08T06:48:20.391Z,101201.09
2022-10-08T06:51:24.528Z,101196.94
2022-10-08T06:54:27.639Z,101203.75
2022-10-08T06:57:30.272Z,101193.31
2022-10-08T07:00:33.818Z,101207.88
2022-10-08T07:03:37.328Z,101203.25
2022-10-08T07:06:41.384Z,101206.59
2022-10-08T07:09:44.011Z,101207.19
2022-10-08T07:12:46.962Z,101213.88
2022-10-08T07:15:49.783Z,101220.16
2022-10-08T07:18:55.248Z,101225.84
2022-10-08T07:22:01.437Z,101219.53
2022-10-08T07:25:04.601Z,101228.66
2022-10-08T07:28:07.417Z,101229.75
2022-10-08T07:31:14.486Z,101235.06
2022-10-08T07:34:17.476Z,101242.53
2022-10-08T07:37:21.468Z,101241.78
2022-10-08T07:40:24.210Z,101250.88
2022-10-08T07:43:27.176Z,101242.81
2022-10-08T07:46:31.763Z,101251.72
2022-10-08T07:49:34.473Z,101241.44
2022-10-08T07:52:38.423Z,101243.41
2022-10-08T07:55:41.222Z,101246.75
2022-10-08T07:58:44.732Z,101245.66
2022-10-08T08:01:47.813Z,101257.56
2022-10-08T08:04:50.629Z,101248.41
2022-10-08T08:07:54.769Z,101250.34
2022-10-08T08:10:58.489Z,101255.63
2022-10-08T08:14:01.115Z,101252.28
2022-10-08T08:17:03.830Z,101256.72
2022-10-08T08:20:07.066Z,101253.97
2022-10-08T08:23:11.096Z,101253.41
2022-10-08T08:26:16.665Z,101253.94
2022-10-08T08:29:20.081Z,101248.44
2022-10-08T08:32:28.206Z,101256.19
2022-10-08T08:35:31.181Z,101249.50
2022-10-08T08:38:37.027Z,101257.81
2022-10-08T08:41:52.472Z,101256.44
2022-10-08T08:44:59.620Z,101272.19
2022-10-08T08:48:07.828Z,101266.13
2022-10-08T08:51:11.279Z,101273.59
2022-10-08T08:54:15.554Z,101272.41
2022-10-08T08:57:35.100Z,101270.47
2022-10-08T09:00:42.643Z,101282.94
2022-10-08T09:03:49.031Z,101280.97
2022-10-08T09:06:53.716Z,101277.41
2022-10-08T09:10:00.656Z,101288.66
2022-10-08T09:13:03.980Z,101285.28
2022-10-08T09:16:06.617Z,101278.91
2022-10-08T09:19:10.840Z,101288.06
2022-10-08T09:22:21.877Z,101298.09
2022-10-08T09:25:28.318Z,101290.09
2022-10-08T09:28:42.993Z,101281.97
2022-10-08T09:31:48.964Z,101303.91
2022-10-08T09:34:51.657Z,101294.69
2022-10-08T09:37:56.538Z,101302.53
2022-10-08T09:41:05.897Z,101302.84
2022-10-08T09:44:15.155Z,101316.97
2022-10-08T09:47:19.885Z,101312.53
2022-10-08T09:50:22.698Z,101312.31
2022-10-08T09:53:29.388Z,101321.97
2022-10-08T09:56:33.991Z,101318.91
2022-10-08T09:59:41.470Z,101320.56
2022-10-08T10:02:44.199Z,101319.19
2022-10-08T10:05:52.452Z,101317.78
2022-10-08T10:09:19.833Z,101316.66
2022-10-08T10:12:30.255Z,101322.09
2022-10-08T10:15:38.381Z,101328.22
2022-10-08T10:18:52.700Z,101328.31
2022-10-08T10:22:00.558Z,101329.72
2022-10-08T10:25:07.312Z,101329.69
2022-10-08T10:28:19.605Z,101333.56
2022-10-08T10:31:28.511Z,101330.78
2022-10-08T10:34:34.270Z,101327.72
2022-10-08T10:37:44.897Z,101338.25
2022-10-08T10:40:50.731Z,101335.22
2022-10-08T10:44:01.296Z,101337.47
2022-10-08T10:47:05.638Z,101336.34
2022-10-08T10:50:14.125Z,101335.28
2022-10-08T10:53:22.981Z,101338.56
2022-10-08T10:56:29.602Z,101340.53
2022-10-08T10:59:45.050Z,101343.28
2022-10-08T11:02:55.243Z,101338.84
2022-10-08T11:06:22.938Z,101341.88
2022-10-08T11:09:34.480Z,101336.34
2022-10-08T11:12:45.856Z,101332.19
2022-10-08T11:15:58.180Z,101333.28
2022-10-08T11:19:03.727Z,101345.75
2022-10-08T11:22:14.385Z,101342.16
2022-10-08T11:25:28.888Z,101352.09
2022-10-08T11:28:41.994Z,101341.03
2022-10-08T11:31:48.355Z,101352.94
2022-10-08T11:34:57.241Z,101340.19
2022-10-08T11:38:07.962Z,101346.25
2022-10-08T11:41:16.086Z,101336.31
2022-10-08T11:44:20.214Z,101343.53
2022-10-08T11:47:50.920Z,101341.56
2022-10-08T11:50:53.692Z,101350.16
2022-10-08T11:54:10.566Z,101340.97
2022-10-08T11:57:18.784Z,101340.47
2022-10-08T12:00:37.562Z,101340.75
2022-10-08T12:03:42.981Z,101333.50
2022-10-08T12:06:48.974Z,101330.59
2022-10-08T12:10:31.635Z,101331.06
2022-10-08T12:13:34.366Z,101328.91
2022-10-08T12:17:10.494Z,101335.94
2022-10-08T12:20:23.628Z,101336.41
2022-10-08T12:23:41.388Z,101344.81
2022-10-08T12:27:25.481Z,101337.84
2022-10-08T12:30:48.648Z,101340.31
2022-10-08T12:34:13.365Z,101341.56
2022-10-08T12:37:40.112Z,101334.53
2022-10-08T12:40:47.121Z,101341.59
2022-10-08T12:43:57.789Z,101342.19
2022-10-08T12:47:10.579Z,101345.09
2022-10-08T12:50:30.968Z,101345.56
2022-10-08T12:53:35.123Z,101332.47
2022-10-08T12:56:39.873Z,101345.63
2022-10-08T12:59:43.255Z,101336.94
2022-10-08T13:02:59.226Z,101344.16
2022-10-08T13:06:16.890Z,101349.81
2022-10-08T13:09:27.068Z,101355.66
2022-10-08T13:12:30.071Z,101355.53
2022-10-08T13:15:33.754Z,101361.63
2022-10-08T13:18:47.632Z,101341.47
2022-10-08T13:22:02.171Z,101350.03
2022-10-08T13:25:07.438Z,101353.97
2022-10-08T13:28:15.581Z,101348.69
2022-10-08T13:31:24.174Z,101345.91
2022-10-08T13:34:30.765Z,101345.00
2022-10-08T13:37:36.261Z,101350.00
2022-10-08T13:40:40.405Z,101361.44
2022-10-08T13:43:43.020Z,101358.53
2022-10-08T13:46:45.813Z,101348.56
2022-10-08T13:49:49.267Z,101351.41
2022-10-08T13:52:55.866Z,101344.44
2022-10-08T13:56:00.120Z,101352.97
2022-10-08T13:59:03.042Z,101341.06
2022-10-08T14:02:08.829Z,101352.88
2022-10-08T14:05:11.921Z,101342.31
2022-10-08T14:08:18.764Z,101354.00
2022-10-08T14:11:24.337Z,101349.31
2022-10-08T14:14:29.009Z,101359.81
2022-10-08T14:17:32.778Z,101351.00
2022-10-08T14:20:36.483Z,101366.53
2022-10-08T14:23:39.381Z,101376.75
2022-10-08T14:26:46.805Z,101394.47
2022-10-08T14:29:49.771Z,101398.25
2022-10-08T14:32:55.762Z,101401.81
2022-10-08T14:35:58.808Z,101391.25
2022-10-08T14:39:01.815Z,101396.94
2022-10-08T14:42:06.352Z,101402.41
2022-10-08T14:45:10.183Z,101394.94
2022-10-08T14:48:13.074Z,101391.66
2022-10-08T14:51:16.140Z,101386.66
2022-10-08T14:54:19.129Z,101382.03
2022-10-08T14:57:23.652Z,101403.25
2022-10-08T15:00:26.731Z,101402.06
2022-10-08T15:03:29.602Z,101406.13
2022-10-08T15:06:32.639Z,101414.31
2022-10-08T15:09:37.458Z,101424.91
2022-10-08T15:12:41.832Z,101424.41
2022-10-08T15:15:45.859Z,101452.75
2022-10-08T15:18:48.682Z,101439.78
2022-10-08T15:21:51.507Z,101451.34
2022-10-08T15:24:54.600Z,101454.03
2022-10-08T15:27:59.064Z,101454.25
2022-10-08T15:31:04.059Z,101464.22
2022-10-08T15:34:06.884Z,101475.22
2022-10-08T15:37:10.218Z,101476.19
2022-10-08T15:40:16.600Z,101467.88
2022-10-08T15:43:27.338Z,101480.88
2022-10-08T15:46:30.336Z,101474.03
2022-10-08T15:49:34.832Z,101481.31
2022-10-08T15:52:39.549Z,101489.84
2022-10-08T15:55:44.938Z,101490.59
2022-10-08T15:58:51.460Z,101493.00
2022-10-08T16:01:55.022Z,101505.38
2022-10-08T16:04:57.975Z,101517.66
2022-10-08T16:08:01.152Z,101504.59
2022-10-08T16:11:12.290Z,101504.03
2022-10-08T16:14:18.540Z,101509.34
2022-10-08T16:17:21.839Z,101517.59
2022-10-08T16:20:25.542Z,101525.03
2022-10-08T16:23:28.901Z,101524.81
2022-10-08T16:26:35.717Z,101529.50
2022-10-08T16:29:40.198Z,101527.31
2022-10-08T16:32:43.131Z,101525.94
2022-10-08T16:35:45.808Z,101541.13
2022-10-08T16:38:48.530Z,101542.28
2022-10-08T16:41:51.169Z,101554.47
2022-10-08T16:44:55.255Z,101545.97
2022-10-08T16:47:57.985Z,101552.09
2022-10-08T16:51:03.846Z,101560.81
2022-10-08T16:54:09.494Z,101570.97
2022-10-08T16:57:12.079Z,101569.47
2022-10-08T17:00:16.707Z,101590.56
2022-10-08T17:03:19.312Z,101605.56
2022-10-08T17:06:24.532Z,101598.97
2022-10-08T17:09:27.283Z,101615.28
2022-10-08T17:12:30.008Z,101621.22
2022-10-08T17:15:34.042Z,101619.84
2022-10-08T17:18:37.499Z,101618.25
2022-10-08T17:21:40.694Z,101621.06
2022-10-08T17:24:43.946Z,101629.84
2022-10-08T17:27:46.522Z,101633.88
2022-10-08T17:30:50.644Z,101645.47
2022-10-08T17:33:53.880Z,101650.63
2022-10-08T17:36:56.973Z,101650.25
2022-10-08T17:39:59.612Z,101658.66
2022-10-08T17:43:04.094Z,101662.16
2022-10-08T17:46:09.761Z,101665.75
2022-10-08T17:49:13.090Z,101663.59
2022-10-08T17:52:15.770Z,101671.25
2022-10-08T17:55:19.633Z,101685.34
2022-10-08T17:58:22.914Z,101689.41
2022-10-08T18:01:29.580Z,101695.97
2022-10-08T18:04:32.306Z,101693.72
2022-10-08T18:07:35.299Z,101697.66
2022-10-08T18:10:38.834Z,101702.75
2022-10-08T18:13:41.979Z,101699.81
2022-10-08T18:16:48.485Z,101714.50
2022-10-08T18:19:51.439Z,101711.63
2022-10-08T18:22:54.172Z,101719.84
2022-10-08T18:26:07.190Z,101727.09
2022-10-08T18:29:12.447Z,101734.72
2022-10-08T18:32:16.547Z,101729.63
2022-10-08T18:35:19.282Z,101733.66
2022-10-08T18:38:21.853Z,101734.25
2022-10-08T18:41:26.470Z,101735.78
2022-10-08T18:44:30.072Z,101737.09
2022-10-08T18:47:33.977Z,101742.47
2022-10-08T18:50:36.551Z,101749.50
2022-10-08T18:53:41.087Z,101753.28
2022-10-08T18:56:43.823Z,101754.00
2022-10-08T18:59:47.329Z,101767.34
2022-10-08T19:02:54.302Z,101776.25
2022-10-08T19:05:57.168Z,101778.53
2022-10-08T19:09:00.873Z,101777.53
2022-10-08T19:12:03.655Z,101777.09
2022-10-08T19:15:06.994Z,101781.22
2022-10-08T19:18:11.040Z,101791.66
2022-10-08T19:21:14.504Z,101787.75
2022-10-08T19:24:18.674Z,101795.38
2022-10-08T19:27:21.378Z,101800.03
2022-10-08T19:30:26.625Z,101797.91
2022-10-08T19:33:32.371Z,101798.59
2022-10-08T19:36:36.828Z,101810.19
2022-10-08T19:39:43.898Z,101803.47
2022-10-08T19:42:47.154Z,101815.84
2022-10-08T19:45:50.111Z,101812.16
2022-10-08T19:48:56.582Z,101814.13
2022-10-08T19:51:59.291Z,101824.50
2022-10-08T19:55:01.899Z,101829.97
2022-10-08T19:58:04.596Z,101829.88
2022-10-08T20:01:09.571Z,101833.47
2022-10-08T20:04:14.025Z,101829.50
2022-10-08T20:07:16.746Z,101837.13
2022-10-08T20:10:19.328Z,101836.94
2022-10-08T20:13:22.042Z,101843.44
2022-10-08T20:16:26.348Z,101852.50
2022-10-08T20:19:30.611Z,101851.03
2022-10-08T20:22:33.277Z,101860.38
2022-10-08T20:25:35.830Z,101862.47
2022-10-08T20:28:38.620Z,101867.16
2022-10-08T20:31:43.165Z,101871.22
2022-10-08T20:34:47.164Z,101869.06
2022-10-08T20:37:49.726Z,101874.91
2022-10-08T20:40:55.777Z,101877.16
2022-10-08T20:44:00.868Z,101882.69
2022-10-08T20:47:03.766Z,101880.44
2022-10-08T20:50:08.464Z,101884.53
2022-10-08T20:53:11.009Z,101894.28
2022-10-08T20:56:13.656Z,101905.81
2022-10-08T20:59:18.235Z,101903.28
2022-10-08T21:02:20.795Z,101899.41
2022-10-08T21:05:24.892Z,101906.41
2022-10-08T21:08:27.539Z,101916.72
2022-10-08T21:11:31.533Z,101905.81
2022-10-08T21:14:34.117Z,101918.09
2022-10-08T21:17:36.761Z,101918.06
2022-10-08T21:20:40.653Z,101929.97
2022-10-08T21:23:43.366Z,101924.03
2022-10-08T21:26:46.107Z,101928.34
2022-10-08T21:29:48.704Z,101939.38
2022-10-08T21:32:51.466Z,101931.78
2022-10-08T21:35:57.928Z,101942.19
2022-10-08T21:39:01.819Z,101950.88
2022-10-08T21:42:04.416Z,101941.09
2022-10-08T21:45:07.791Z,101950.19
2022-10-08T21:48:10.378Z,101948.34
2022-10-08T21:51:16.203Z,101949.34
2022-10-08T21:54:19.408Z,101942.28
2022-10-08T21:57:22.371Z,101943.38
2022-10-08T22:00:32.893Z,101945.31
2022-10-08T22:03:35.515Z,101949.72
2022-10-08T22:06:41.113Z,101962.75
2022-10-08T22:09:43.810Z,101966.47
2022-10-08T22:12:46.588Z,101967.53
2022-10-08T22:15:53.925Z,101972.00
2022-10-08T22:18:56.642Z,101975.53
2022-10-08T22:22:00.721Z,101960.50
2022-10-08T22:25:03.297Z,101971.59
2022-10-08T22:28:06.132Z,101974.09
2022-10-08T22:31:11.040Z,101982.09
2022-10-08T22:34:13.843Z,101974.66
2022-10-08T22:37:17.798Z,101977.09
2022-10-08T22:40:20.477Z,101981.66
2022-10-08T22:43:23.159Z,101983.97
2022-10-08T22:46:27.934Z,101982.25
2022-10-08T22:49:30.794Z,101982.66
2022-10-08T22:52:34.737Z,101987.38
2022-10-08T22:55:41.377Z,101983.06
2022-10-08T22:58:44.231Z,101981.06
2022-10-08T23:01:46.818Z,101983.19
2022-10-08T23:04:49.532Z,101986.84
2022-10-08T23:07:56.796Z,101995.84
2022-10-08T23:10:59.974Z,101991.16
2022-10-08T23:14:03.512Z,102001.59
2022-10-08T23:17:06.061Z,101981.78
2022-10-08T23:20:09.078Z,101994.28
2022-10-08T23:23:12.951Z,101991.06
2022-10-08T23:26:16.930Z,102002.59
2022-10-08T23:29:19.858Z,102000.38
2022-10-08T23:32:22.757Z,102002.13
2022-10-08T23:35:25.478Z,101997.69
2022-10-08T23:38:29.648Z,102000.63
2022-10-08T23:41:32.292Z,102008.97
2022-10-08T23:44:35.571Z,102019.34
2022-10-08T23:47:38.165Z,102005.31
2022-10-08T23:50:40.795Z,102001.28
2022-10-08T23:53:45.353Z,102011.75
2022-10-08T23:56:48.093Z,102008.31
2022-10-08T23:59:50.671Z,102022.88
